Time;durP1;ratioP1;P1;durP2;ratioP2;P2;SDS_P1;SDS_P2;PMS_P1;PMS_P2;Temp;Humidity;BMP_temperature;BMP_pressure;BME280_temperature;BME280_humidity;BME280_pressure;Samples;Min_cycle;Max_cycle;Signal;HPM_P1;HPM_P2
2022/03/02 00:02:10;;;;;;;33.72;19.02;;;;;;;;;;5013514;28;20038;-66
2022/03/02 00:04:42;;;;;;;34.13;19.88;;;;;;;;;;5013523;28;20512;-65
2022/03/02 00:07:18;;;;;;;34.40;20.85;;;;;;;;;;5013201;28;20595;-66
2022/03/02 00:09:45;;;;;;;;;;;;;;;;;;5013605;28;20424;-65
2022/03/02 00:12:13;;;;;;;35.47;19.73;;;;;;;;;;5012856;28;19921;-65
2022/03/02 00:14:46;;;;;;;38.78;20.25;;;;;;;;;;5013031;28;20073;-65
2022/03/02 00:17:14;;;;;;;34.97;21.40;;;;;;;;;;5012976;28;20072;-67
2022/03/02 00:20:07;;;;;;;37.65;20.88;;;;;;;;;;5013251;28;20105;-67
2022/03/02 00:22:36;;;;;;;38.65;21.88;;;;;;;;;;5013161;28;20412;-67
2022/03/02 00:25:29;;;;;;;36.33;21.75;;;;;;;;;;5013275;28;20061;-65
2022/03/02 00:28:02;;;;;;;39.17;21.83;;;;;;;;;;5013467;28;20050;-64
2022/03/02 00:30:31;;;;;;;36.85;20.55;;;;;;;;;;5013043;28;20081;-67
2022/03/02 00:33:04;;;;;;;36.75;20.58;;;;;;;;;;5013204;28;20038;-65
2022/03/02 00:35:34;;;;;;;41.70;24.20;;;;;;;;;;5012555;28;20136;-67
2022/03/02 00:38:06;;;;;;;36.85;22.55;;;;;;;;;;5013220;28;20404;-67
2022/03/02 00:40:35;;;;;;;40.40;23.42;;;;;;;;;;5014064;28;20041;-67
2022/03/02 00:43:08;;;;;;;40.63;22.50;;;;;;;;;;5016898;28;20060;-67
2022/03/02 00:45:40;;;;;;;40.03;21.73;;;;;;;;;;5016656;28;20042;-68
2022/03/02 00:48:33;;;;;;;42.90;23.17;;;;;;;;;;5016259;28;20056;-67
2022/03/02 00:51:02;;;;;;;39.95;22.40;;;;;;;;;;5016090;28;20144;-67
2022/03/02 00:53:37;;;;;;;36.22;21.27;;;;;;;;;;5016292;28;20408;-67
2022/03/02 00:56:05;;;;;;;44.70;23.02;;;;;;;;;;5016347;28;20080;-67
2022/03/02 00:58:40;;;;;;;44.40;23.77;;;;;;;;;;5016509;28;20373;-67
2022/03/02 01:01:12;;;;;;;40.45;22.60;;;;;;;;;;5016178;28;20037;-67
2022/03/02 01:03:41;;;;;;;41.60;23.23;;;;;;;;;;5015956;28;20057;-67
2022/03/02 01:06:34;;;;;;;40.17;21.63;;;;;;;;;;5016301;28;20049;-68
2022/03/02 01:09:03;;;;;;;40.97;21.95;;;;;;;;;;5016069;28;20489;-67
2022/03/02 01:11:35;;;;;;;44.63;22.52;;;;;;;;;;5016021;28;20060;-67
2022/03/02 01:14:04;;;;;;;40.38;22.63;;;;;;;;;;5016200;28;20046;-67
2022/03/02 01:16:36;;;;;;;44.22;24.38;;;;;;;;;;5015923;28;20037;-67
2022/03/02 01:19:03;;;;;;;43.45;22.52;;;;;;;;;;5015913;28;20463;-68
2022/03/02 01:21:56;;;;;;;43.78;23.90;;;;;;;;;;5015411;28;20042;-67
2022/03/02 01:24:24;;;;;;;45.00;23.63;;;;;;;;;;5015759;28;20038;-67
2022/03/02 01:26:55;;;;;;;41.03;22.02;;;;;;;;;;5015701;28;20038;-67
2022/03/02 01:29:30;;;;;;;43.65;23.92;;;;;;;;;;5014438;28;20042;-67
2022/03/02 01:31:59;;;;;;;47.05;24.40;;;;;;;;;;5015941;28;20068;-65
2022/03/02 01:34:51;;;;;;;49.78;24.27;;;;;;;;;;5015742;28;20096;-67
2022/03/02 01:37:19;;;;;;;45.33;22.67;;;;;;;;;;5015153;28;20030;-67
2022/03/02 01:39:50;;;;;;;47.08;24.42;;;;;;;;;;5015653;28;20038;-67
2022/03/02 01:42:20;;;;;;;44.42;24.95;;;;;;;;;;5015648;28;20042;-67
2022/03/02 01:44:51;;;;;;;46.72;24.48;;;;;;;;;;5015516;28;20042;-66
2022/03/02 01:47:28;;;;;;;43.58;24.98;;;;;;;;;;5015173;28;20084;-68
2022/03/02 01:49:56;;;;;;;43.28;24.02;;;;;;;;;;5015362;28;20439;-65
2022/03/02 01:52:48;;;;;;;44.80;23.77;;;;;;;;;;5015278;28;20042;-65
2022/03/02 01:55:16;;;;;;;45.25;24.83;;;;;;;;;;5014860;28;20060;-67
2022/03/02 01:57:47;;;;;;;43.92;22.52;;;;;;;;;;5015251;28;20042;-67
2022/03/02 02:00:18;;;;;;;41.70;22.58;;;;;;;;;;5015485;28;20061;-65
2022/03/02 02:02:54;;;;;;;44.53;23.80;;;;;;;;;;5014997;28;20062;-67
2022/03/02 02:05:27;;;;;;;40.50;22.83;;;;;;;;;;5014815;28;20046;-65
2022/03/02 02:07:55;;;;;;;41.45;23.23;;;;;;;;;;5014999;28;20088;-65
2022/03/02 02:10:48;;;;;;;40.92;22.45;;;;;;;;;;5015178;28;20052;-65
2022/03/02 02:13:19;;;;;;;44.85;23.10;;;;;;;;;;5014710;28;20100;-65
2022/03/02 02:15:49;;;;;;;42.88;23.77;;;;;;;;;;5014811;28;20056;-65
2022/03/02 02:18:17;;;;;;;40.47;22.83;;;;;;;;;;5013635;28;20054;-67
2022/03/02 02:21:11;;;;;;;41.08;23.50;;;;;;;;;;5014951;28;20440;-66
2022/03/02 02:23:41;;;;;;;43.70;23.38;;;;;;;;;;5014644;28;20073;-66
2022/03/02 02:26:09;;;;;;;43.55;23.42;;;;;;;;;;5014713;28;20046;-66
2022/03/02 02:28:44;;;;;;;43.78;23.52;;;;;;;;;;5014512;28;20060;-66
2022/03/02 02:31:12;;;;;;;44.25;24.13;;;;;;;;;;5013115;28;20050;-66
2022/03/02 02:33:43;;;;;;;42.10;24.38;;;;;;;;;;5014294;28;20520;-66
2022/03/02 02:36:20;;;;;;;49.15;24.77;;;;;;;;;;5014165;28;20081;-66
2022/03/02 02:38:47;;;;;;;40.65;23.10;;;;;;;;;;5013241;28;20042;-66
2022/03/02 02:41:20;;;;;;;41.92;23.45;;;;;;;;;;5013512;28;20065;-66
2022/03/02 02:43:48;;;;;;;40.20;22.48;;;;;;;;;;5014533;28;20050;-66
2022/03/02 02:46:19;;;;;;;39.67;22.55;;;;;;;;;;5014270;28;20124;-66
2022/03/02 02:48:51;;;;;;;40.03;22.42;;;;;;;;;;5014332;28;20050;-66
2022/03/02 02:51:18;;;;;;;41.83;23.02;;;;;;;;;;5014479;28;20042;-66
2022/03/02 02:53:49;;;;;;;42.65;22.35;;;;;;;;;;5014162;28;20042;-66
2022/03/02 02:56:17;;;;;;;37.20;22.10;;;;;;;;;;5013853;28;20046;-66
2022/03/02 02:58:51;;;;;;;37.75;21.98;;;;;;;;;;5014490;28;20038;-66
2022/03/02 03:01:21;;;;;;;36.57;21.03;;;;;;;;;;5014016;28;20113;-66
2022/03/02 03:03:50;;;;;;;34.08;19.65;;;;;;;;;;5013857;28;20044;-67
2022/03/02 03:06:20;;;;;;;36.65;21.20;;;;;;;;;;5013911;28;20117;-66
2022/03/02 03:08:49;;;;;;;36.45;20.85;;;;;;;;;;5014315;28;20045;-66
2022/03/02 03:11:21;;;;;;;37.30;21.23;;;;;;;;;;5013941;28;20057;-66
2022/03/02 03:13:50;;;;;;;36.30;21.70;;;;;;;;;;5013909;28;20038;-66
2022/03/02 03:16:20;;;;;;;37.33;21.00;;;;;;;;;;5013533;28;20049;-66
2022/03/02 03:18:47;;;;;;;36.97;20.58;;;;;;;;;;5013602;28;20082;-67
2022/03/02 03:21:18;;;;;;;36.10;20.80;;;;;;;;;;5013775;28;20042;-66
2022/03/02 03:23:45;;;;;;;37.83;21.42;;;;;;;;;;5013462;28;20514;-66
2022/03/02 03:26:15;;;;;;;37.35;21.15;;;;;;;;;;5013530;28;20050;-66
2022/03/02 03:28:44;;;;;;;40.47;22.30;;;;;;;;;;5014010;28;20044;-66
2022/03/02 03:31:16;;;;;;;35.03;20.42;;;;;;;;;;5013975;28;20046;-66
2022/03/02 03:33:52;;;;;;;34.97;20.67;;;;;;;;;;5013727;28;20062;-66
2022/03/02 03:36:21;;;;;;;;;;;;;;;;;;5014225;28;20050;-66
2022/03/02 03:38:51;;;;;;;37.35;21.10;;;;;;;;;;5013542;28;19929;-66
2022/03/02 03:41:24;;;;;;;36.40;21.13;;;;;;;;;;5013574;28;20045;-67
2022/03/02 03:43:51;;;;;;;36.13;21.60;;;;;;;;;;5013448;28;20128;-67
2022/03/02 03:46:21;;;;;;;35.92;21.08;;;;;;;;;;5013291;28;20049;-66
2022/03/02 03:48:55;;;;;;;36.65;21.38;;;;;;;;;;5012434;28;20389;-67
2022/03/02 03:51:25;;;;;;;37.00;20.30;;;;;;;;;;5013602;28;20042;-67
2022/03/02 03:53:57;;;;;;;37.17;21.48;;;;;;;;;;5013385;28;20099;-66
2022/03/02 03:56:30;;;;;;;34.78;20.88;;;;;;;;;;5013138;28;20050;-67
2022/03/02 03:59:00;;;;;;;33.45;19.88;;;;;;;;;;5013475;28;20042;-67
2022/03/02 04:01:32;;;;;;;34.42;20.15;;;;;;;;;;5012955;28;20050;-67
2022/03/02 04:04:05;;;;;;;32.85;19.90;;;;;;;;;;5013509;28;20046;-67
2022/03/02 04:06:33;;;;;;;31.88;19.50;;;;;;;;;;5014048;28;20054;-66
2022/03/02 04:09:04;;;;;;;34.72;19.83;;;;;;;;;;5011789;28;20443;-67
2022/03/02 04:11:39;;;;;;;35.85;20.48;;;;;;;;;;5013148;28;20073;-67
2022/03/02 04:14:08;;;;;;;34.03;19.02;;;;;;;;;;5028571;28;20050;-66
2022/03/02 04:16:41;;;;;;;34.97;20.25;;;;;;;;;;5015609;28;20042;-66
2022/03/02 04:19:09;;;;;;;36.00;20.73;;;;;;;;;;5016680;28;20050;-67
2022/03/02 04:22:01;;;;;;;33.13;19.10;;;;;;;;;;5017740;28;20057;-67
2022/03/02 04:24:32;;;;;;;35.95;20.13;;;;;;;;;;5016845;28;20046;-66
2022/03/02 04:27:07;;;;;;;33.92;19.55;;;;;;;;;;5016627;28;20121;-66
2022/03/02 04:29:40;;;;;;;37.10;20.58;;;;;;;;;;5017245;28;20050;-67
2022/03/02 04:32:08;;;;;;;31.52;19.58;;;;;;;;;;5016809;28;20042;-66
2022/03/02 04:35:00;;;;;;;32.78;19.13;;;;;;;;;;5016961;28;20447;-67
2022/03/02 04:37:32;;;;;;;30.65;18.08;;;;;;;;;;5016791;28;20081;-67
2022/03/02 04:40:07;;;;;;;29.98;18.67;;;;;;;;;;5016628;28;20042;-67
2022/03/02 04:42:36;;;;;;;31.95;18.13;;;;;;;;;;5016266;28;20049;-67
2022/03/02 04:45:05;;;;;;;31.25;18.58;;;;;;;;;;5017050;28;20038;-67
2022/03/02 04:47:38;;;;;;;31.50;18.73;;;;;;;;;;5017215;28;20042;-67
2022/03/02 04:50:07;;;;;;;30.10;17.25;;;;;;;;;;5016421;28;20046;-67
2022/03/02 04:52:35;;;;;;;31.77;18.33;;;;;;;;;;5016427;28;20037;-67
2022/03/02 04:55:07;;;;;;;34.58;18.35;;;;;;;;;;5016126;28;20461;-67
2022/03/02 04:57:36;;;;;;;33.78;18.25;;;;;;;;;;5016134;28;20042;-67
2022/03/02 05:00:06;;;;;;;30.55;18.65;;;;;;;;;;5016371;28;20046;-67
2022/03/02 05:02:36;;;;;;;36.35;18.50;;;;;;;;;;5016408;28;20463;-67
2022/03/02 05:05:05;;;;;;;32.80;17.92;;;;;;;;;;5016752;28;20038;-67
2022/03/02 05:07:37;;;;;;;30.58;18.33;;;;;;;;;;5016408;28;20100;-68
2022/03/02 05:10:06;;;;;;;32.40;18.23;;;;;;;;;;5015846;28;20046;-68
2022/03/02 05:12:34;;;;;;;31.63;17.77;;;;;;;;;;5016118;28;20420;-68
2022/03/02 05:15:08;;;;;;;32.22;17.48;;;;;;;;;;5016473;28;20052;-68
2022/03/02 05:17:42;;;;;;;31.17;17.52;;;;;;;;;;5015984;28;20136;-67
2022/03/02 05:20:11;;;;;;;32.72;18.52;;;;;;;;;;5015547;28;20504;-68
2022/03/02 05:22:47;;;;;;;32.05;18.23;;;;;;;;;;5015973;28;20042;-67
2022/03/02 05:25:19;;;;;;;31.60;18.23;;;;;;;;;;5015350;28;20081;-67
2022/03/02 05:27:47;;;;;;;31.80;17.70;;;;;;;;;;5014471;28;20052;-67
2022/03/02 05:30:17;;;;;;;37.70;18.77;;;;;;;;;;5014477;28;20065;-67
2022/03/02 05:32:50;;;;;;;34.60;18.60;;;;;;;;;;5015044;28;20042;-67
2022/03/02 05:35:19;;;;;;;35.33;19.20;;;;;;;;;;5015122;28;20084;-67
2022/03/02 05:37:46;;;;;;;41.47;21.05;;;;;;;;;;5015381;28;20100;-67
2022/03/02 05:40:18;;;;;;;36.50;21.23;;;;;;;;;;5015247;28;20516;-67
2022/03/02 05:42:57;;;;;;;40.58;21.92;;;;;;;;;;5015432;28;20077;-67
2022/03/02 05:45:24;;;;;;;40.67;21.58;;;;;;;;;;5015643;28;20460;-66
2022/03/02 05:48:01;;;;;;;36.05;21.23;;;;;;;;;;5015408;28;20037;-66
2022/03/02 05:50:54;;;;;;;39.90;22.25;;;;;;;;;;5015559;28;20042;-66
2022/03/02 05:53:25;;;;;;;42.22;22.45;;;;;;;;;;5015206;28;20038;-67
2022/03/02 05:55:53;;;;;;;41.88;21.95;;;;;;;;;;5014574;28;20059;-66
2022/03/02 05:58:20;;;;;;;40.92;22.52;;;;;;;;;;5023089;28;20045;-66
2022/03/02 06:00:50;;;;;;;38.40;22.65;;;;;;;;;;5014989;28;20045;-66
2022/03/02 06:03:20;;;;;;;41.38;22.92;;;;;;;;;;5014840;28;20054;-66
2022/03/02 06:05:49;;;;;;;43.88;23.52;;;;;;;;;;5014843;28;20050;-66
2022/03/02 06:08:20;;;;;;;41.90;23.42;;;;;;;;;;5013705;28;20046;-66
2022/03/02 06:10:49;;;;;;;40.85;23.00;;;;;;;;;;5013584;28;20148;-67
2022/03/02 06:13:17;;;;;;;37.70;21.48;;;;;;;;;;5013585;28;20045;-66
2022/03/02 06:15:51;;;;;;;39.15;21.08;;;;;;;;;;5013555;28;20050;-66
2022/03/02 06:18:18;;;;;;;39.60;22.63;;;;;;;;;;5013253;28;20124;-65
2022/03/02 06:20:50;;;;;;;44.03;23.73;;;;;;;;;;5014568;28;20041;-67
2022/03/02 06:23:19;;;;;;;43.65;23.58;;;;;;;;;;5012246;28;20056;-67
2022/03/02 06:25:47;;;;;;;37.80;21.95;;;;;;;;;;4997055;28;20563;-67
2022/03/02 06:28:16;;;;;;;42.15;23.58;;;;;;;;;;5013234;28;20076;-67
2022/03/02 06:30:44;;;;;;;38.70;22.13;;;;;;;;;;5014827;28;20041;-67
2022/03/02 06:33:16;;;;;;;39.47;22.15;;;;;;;;;;5012852;28;20042;-67
2022/03/02 06:35:43;;;;;;;37.97;21.30;;;;;;;;;;5012910;28;20414;-67
2022/03/02 06:38:13;;;;;;;34.95;21.67;;;;;;;;;;5013595;28;20038;-67
2022/03/02 06:40:56;;;;;;;35.72;20.90;;;;;;;;;;5012609;28;20042;-67
2022/03/02 06:43:24;;;;;;;33.67;20.48;;;;;;;;;;5013722;28;20096;-67
2022/03/02 06:46:00;;;;;;;37.22;21.60;;;;;;;;;;5014480;28;20050;-67
2022/03/02 06:48:57;;;;;;;35.40;20.52;;;;;;;;;;5013194;28;20060;-68
2022/03/02 06:51:30;;;;;;;34.35;20.40;;;;;;;;;;5001889;28;20077;-68
2022/03/02 06:54:04;;;;;;;33.58;20.42;;;;;;;;;;5012731;28;20057;-67
2022/03/02 06:56:40;;;;;;;29.40;18.38;;;;;;;;;;5013522;28;20050;-67
2022/03/02 06:59:15;;;;;;;31.33;18.63;;;;;;;;;;5014390;28;20041;-68
2022/03/02 07:01:47;;;;;;;33.35;20.13;;;;;;;;;;5014317;28;20092;-67
2022/03/02 07:04:15;;;;;;;38.15;21.60;;;;;;;;;;5013731;28;20117;-67
2022/03/02 07:06:46;;;;;;;34.08;20.77;;;;;;;;;;5014224;28;20052;-67
2022/03/02 07:09:16;;;;;;;36.40;21.55;;;;;;;;;;5014462;28;20042;-67
2022/03/02 07:11:48;;;;;;;30.63;19.85;;;;;;;;;;5014083;28;20045;-67
2022/03/02 07:14:17;;;;;;;32.10;20.55;;;;;;;;;;5013787;28;20452;-67
2022/03/02 07:16:52;;;;;;;32.75;21.13;;;;;;;;;;5013919;28;20430;-68
2022/03/02 07:19:21;;;;;;;25.05;18.73;;;;;;;;;;5013512;28;20058;-66
2022/03/02 07:22:13;;;;;;;23.55;17.25;;;;;;;;;;5013412;28;20050;-67
2022/03/02 07:24:45;;;;;;;23.52;18.30;;;;;;;;;;5012662;28;20049;-65
2022/03/02 07:27:16;;;;;;;22.88;17.17;;;;;;;;;;5012339;28;20046;-66
2022/03/02 07:29:49;;;;;;;23.00;16.70;;;;;;;;;;5012466;28;20576;-65
2022/03/02 07:32:22;;;;;;;24.25;17.30;;;;;;;;;;5012370;28;20073;-65
2022/03/02 07:34:56;;;;;;;26.00;18.17;;;;;;;;;;5014271;28;20137;-65
2022/03/02 07:37:30;;;;;;;24.58;16.90;;;;;;;;;;5013773;28;20054;-66
2022/03/02 07:40:02;;;;;;;23.33;15.88;;;;;;;;;;5013557;28;20408;-66
2022/03/02 07:42:41;;;;;;;25.60;17.02;;;;;;;;;;5012681;28;20046;-66
2022/03/02 07:45:11;;;;;;;21.83;14.85;;;;;;;;;;5012320;28;20532;-66
2022/03/02 07:47:39;;;;;;;22.25;14.43;;;;;;;;;;5013181;28;20049;-67
2022/03/02 07:50:32;;;;;;;23.05;15.07;;;;;;;;;;5015590;28;20408;-67
2022/03/02 07:53:01;;;;;;;22.08;15.07;;;;;;;;;;5017724;28;20056;-66
2022/03/02 07:55:31;;;;;;;23.88;16.08;;;;;;;;;;5016156;28;20046;-67
2022/03/02 07:58:03;;;;;;;24.08;15.25;;;;;;;;;;5016324;28;20148;-66
2022/03/02 08:00:36;;;;;;;28.00;16.00;;;;;;;;;;5016038;28;20468;-66
2022/03/02 08:03:06;;;;;;;19.98;14.15;;;;;;;;;;5017433;28;20038;-66
2022/03/02 08:05:37;;;;;;;21.95;14.20;;;;;;;;;;5017126;28;20049;-66
2022/03/02 08:08:15;;;;;;;23.92;14.48;;;;;;;;;;5016039;28;20042;-68
2022/03/02 08:10:45;;;;;;;20.98;14.20;;;;;;;;;;5017769;28;20048;-68
2022/03/02 08:13:18;;;;;;;22.90;14.57;;;;;;;;;;5015635;28;20054;-67
2022/03/02 08:15:54;;;;;;;24.10;13.77;;;;;;;;;;5017445;28;20048;-66
2022/03/02 08:18:21;;;;;;;17.35;12.93;;;;;;;;;;5015764;28;20044;-67
2022/03/02 08:21:00;;;;;;;19.00;13.05;;;;;;;;;;5015598;28;20049;-66
2022/03/02 08:23:32;;;;;;;22.80;14.38;;;;;;;;;;5016686;28;20052;-66
2022/03/02 08:26:04;;;;;;;22.25;14.50;;;;;;;;;;5015493;28;20046;-67
2022/03/02 08:28:34;;;;;;;24.40;15.85;;;;;;;;;;5015615;28;20054;-67
2022/03/02 08:31:03;;;;;;;20.75;14.18;;;;;;;;;;5016789;28;20451;-67
2022/03/02 08:33:35;;;;;;;20.70;12.30;;;;;;;;;;5015187;28;20053;-66
2022/03/02 08:36:05;;;;;;;19.35;12.95;;;;;;;;;;5016606;28;20045;-67
2022/03/02 08:38:40;;;;;;;18.25;13.48;;;;;;;;;;5015251;28;20073;-67
2022/03/02 08:41:12;;;;;;;15.88;10.55;;;;;;;;;;5015351;28;20041;-68
2022/03/02 08:43:42;;;;;;;21.67;14.30;;;;;;;;;;5015198;28;20046;-67
2022/03/02 08:46:12;;;;;;;20.75;14.55;;;;;;;;;;5016552;28;20455;-67
2022/03/02 08:48:43;;;;;;;18.52;12.27;;;;;;;;;;5016519;28;20504;-66
2022/03/02 08:51:12;;;;;;;18.70;12.50;;;;;;;;;;5015280;28;20362;-66
2022/03/02 08:53:44;;;;;;;16.75;12.48;;;;;;;;;;5016085;28;20045;-66
2022/03/02 08:56:15;;;;;;;14.55;11.70;;;;;;;;;;5014956;28;20124;-67
2022/03/02 08:58:45;;;;;;;16.45;12.32;;;;;;;;;;5015684;28;20138;-67
2022/03/02 09:01:15;;;;;;;16.77;12.57;;;;;;;;;;4997822;28;20120;-67
2022/03/02 09:03:46;;;;;;;19.30;14.27;;;;;;;;;;5016161;28;20045;-66
2022/03/02 09:06:19;;;;;;;17.02;12.98;;;;;;;;;;5016488;28;20065;-66
2022/03/02 09:08:49;;;;;;;14.43;11.90;;;;;;;;;;5014777;28;20066;-67
2022/03/02 09:11:18;;;;;;;16.27;12.75;;;;;;;;;;5014704;28;20041;-67
2022/03/02 09:13:50;;;;;;;17.80;13.32;;;;;;;;;;5014532;28;20468;-67
2022/03/02 09:16:22;;;;;;;18.52;12.98;;;;;;;;;;5015796;28;20042;-67
2022/03/02 09:18:50;;;;;;;16.27;12.23;;;;;;;;;;5014260;28;20085;-67
2022/03/02 09:21:27;;;;;;;15.85;12.23;;;;;;;;;;5015995;28;20049;-67
2022/03/02 09:23:55;;;;;;;16.92;12.57;;;;;;;;;;5016044;28;20046;-67
2022/03/02 09:26:26;;;;;;;23.52;18.48;;;;;;;;;;5014523;28;20054;-67
2022/03/02 09:28:58;;;;;;;17.63;13.10;;;;;;;;;;5014422;28;20096;-67
2022/03/02 09:31:26;;;;;;;19.58;13.88;;;;;;;;;;5014298;28;20068;-67
2022/03/02 09:33:58;;;;;;;17.77;13.45;;;;;;;;;;5010362;28;20043;-67
2022/03/02 09:36:26;;;;;;;19.48;13.80;;;;;;;;;;4996296;28;20042;-67
2022/03/02 09:39:01;;;;;;;20.63;14.13;;;;;;;;;;4996011;28;20038;-67
2022/03/02 09:41:34;;;;;;;17.83;12.98;;;;;;;;;;5011248;28;20539;-67
2022/03/02 09:44:11;;;;;;;20.50;13.98;;;;;;;;;;4996209;28;20399;-67
2022/03/02 09:46:39;;;;;;;17.80;13.10;;;;;;;;;;4995964;28;20125;-67
2022/03/02 09:49:08;;;;;;;16.85;12.23;;;;;;;;;;5010683;28;20049;-67
2022/03/02 09:51:43;;;;;;;15.77;11.80;;;;;;;;;;4995662;28;20051;-67
2022/03/02 09:54:10;;;;;;;16.42;12.13;;;;;;;;;;4995788;28;20491;-66
2022/03/02 09:56:41;;;;;;;14.95;10.60;;;;;;;;;;4995823;28;20038;-69
2022/03/02 09:59:15;;;;;;;13.07;9.68;;;;;;;;;;4995619;28;20134;-66
2022/03/02 10:01:44;;;;;;;15.23;10.18;;;;;;;;;;5010602;28;20046;-66
2022/03/02 10:04:17;;;;;;;14.93;10.70;;;;;;;;;;5010236;28;20153;-66
2022/03/02 10:06:48;;;;;;;13.93;9.95;;;;;;;;;;4995625;28;20042;-66
2022/03/02 10:09:21;;;;;;;13.38;9.63;;;;;;;;;;5010538;28;20451;-66
2022/03/02 10:11:50;;;;;;;14.85;9.32;;;;;;;;;;5010415;28;20177;-67
2022/03/02 10:14:20;;;;;;;14.70;10.52;;;;;;;;;;4992751;28;20045;-66
2022/03/02 10:16:57;;;;;;;11.98;8.27;;;;;;;;;;4995351;28;20117;-66
2022/03/02 10:19:41;;;;;;;11.32;8.40;;;;;;;;;;4994782;28;20519;-67
2022/03/02 10:22:11;;;;;;;10.13;7.63;;;;;;;;;;5010514;28;20046;-67
2022/03/02 10:24:43;;;;;;;9.15;7.50;;;;;;;;;;4993746;28;20042;-67
2022/03/02 10:27:21;;;;;;;10.27;7.28;;;;;;;;;;4995156;28;20422;-67
2022/03/02 10:30:06;;;;;;;12.20;9.70;;;;;;;;;;5009878;28;20057;-67
2022/03/02 10:32:35;;;;;;;16.95;12.52;;;;;;;;;;5010520;28;20097;-68
2022/03/02 10:35:09;;;;;;;23.30;15.00;;;;;;;;;;5010292;28;20043;-67
2022/03/02 10:37:39;;;;;;;13.95;10.80;;;;;;;;;;5009768;28;20070;-67
2022/03/02 10:40:13;;;;;;;12.07;9.38;;;;;;;;;;5009432;28;20058;-67
2022/03/02 10:43:01;;;;;;;10.30;8.27;;;;;;;;;;5009797;28;20054;-67
2022/03/02 10:45:43;;;;;;;13.48;10.25;;;;;;;;;;5009687;28;20043;-67
2022/03/02 10:48:25;;;;;;;10.88;8.77;;;;;;;;;;5009562;28;20081;-67
2022/03/02 10:50:57;;;;;;;15.27;9.68;;;;;;;;;;5009463;28;20053;-66
2022/03/02 10:53:27;;;;;;;10.82;8.40;;;;;;;;;;4994439;28;20535;-66
2022/03/02 10:55:59;;;;;;;10.32;7.38;;;;;;;;;;4994800;28;20137;-66
2022/03/02 10:58:28;;;;;;;10.32;7.53;;;;;;;;;;5009501;28;20465;-67
2022/03/02 11:00:59;;;;;;;7.57;6.35;;;;;;;;;;4994468;28;20042;-67
2022/03/02 11:03:36;;;;;;;25.73;15.27;;;;;;;;;;5009954;28;20043;-66
2022/03/02 11:06:08;;;;;;;11.10;7.95;;;;;;;;;;5009315;28;20038;-67
2022/03/02 11:08:38;;;;;;;8.32;6.53;;;;;;;;;;5009235;28;20042;-67
2022/03/02 11:11:13;;;;;;;13.35;9.05;;;;;;;;;;5009445;28;20489;-67
2022/03/02 11:13:42;;;;;;;8.13;5.72;;;;;;;;;;5009290;28;20133;-67
2022/03/02 11:16:19;;;;;;;9.18;6.35;;;;;;;;;;5009426;28;20089;-67
2022/03/02 11:18:52;;;;;;;9.30;5.82;;;;;;;;;;4993002;28;20505;-67
2022/03/02 11:21:30;;;;;;;11.40;6.28;;;;;;;;;;4994200;28;20043;-67
2022/03/02 11:24:02;;;;;;;8.80;6.35;;;;;;;;;;5008841;28;20050;-66
2022/03/02 11:26:34;;;;;;;7.68;6.10;;;;;;;;;;4993931;28;20046;-67
2022/03/02 11:29:11;;;;;;;9.25;5.95;;;;;;;;;;5009030;28;20053;-66
2022/03/02 11:31:54;;;;;;;9.45;6.60;;;;;;;;;;4994109;28;20054;-67
2022/03/02 11:34:29;;;;;;;9.43;7.30;;;;;;;;;;4993939;28;20053;-67
2022/03/02 11:37:00;;;;;;;11.15;7.93;;;;;;;;;;4993684;28;20077;-67
2022/03/02 11:39:42;;;;;;;9.70;7.30;;;;;;;;;;4993429;28;20042;-66
2022/03/02 11:42:10;;;;;;;13.57;8.93;;;;;;;;;;5008815;28;20053;-66
2022/03/02 11:44:42;;;;;;;12.10;8.85;;;;;;;;;;4993776;28;20042;-66
2022/03/02 11:47:16;;;;;;;13.50;10.25;;;;;;;;;;4994975;28;20050;-67
2022/03/02 11:49:53;;;;;;;10.40;8.02;;;;;;;;;;4993766;28;20077;-67
2022/03/02 11:52:22;;;;;;;16.65;11.93;;;;;;;;;;5008796;28;20460;-67
2022/03/02 11:54:53;;;;;;;13.63;10.50;;;;;;;;;;4993755;28;20038;-67
2022/03/02 11:57:23;;;;;;;13.68;10.52;;;;;;;;;;5008769;28;20054;-67
2022/03/02 12:00:28;;;;;;;20.30;14.57;;;;;;;;;;4993670;28;20522;-66
2022/03/02 12:02:58;;;;;;;10.65;8.48;;;;;;;;;;4952793;29;20047;-67
2022/03/02 12:05:30;;;;;;;8.63;6.88;;;;;;;;;;4998950;28;20437;-67
2022/03/02 12:08:16;;;;;;;13.43;8.95;;;;;;;;;;4993650;28;20515;-66
2022/03/02 12:10:54;;;;;;;9.15;7.50;;;;;;;;;;5008735;28;20559;-66
2022/03/02 12:13:24;;;;;;;15.13;10.63;;;;;;;;;;4993414;28;20121;-65
2022/03/02 12:15:55;;;;;;;12.95;9.38;;;;;;;;;;5008785;28;20050;-67
2022/03/02 12:18:23;;;;;;;10.65;7.75;;;;;;;;;;4994038;28;20097;-65
2022/03/02 12:21:18;;;;;;;8.18;6.18;;;;;;;;;;4993342;28;20050;-66
2022/03/02 12:23:53;;;;;;;16.15;9.65;;;;;;;;;;4993807;28;20066;-66
2022/03/02 12:26:30;;;;;;;;;;;;;;;;;;4993936;28;20069;-66
2022/03/02 12:28:58;;;;;;;9.20;6.88;;;;;;;;;;4993957;28;19964;-65
2022/03/02 12:31:32;;;;;;;10.13;7.18;;;;;;;;;;4993425;28;20474;-65
2022/03/02 12:34:20;;;;;;;9.40;7.28;;;;;;;;;;5008402;28;20061;-66
2022/03/02 12:36:50;;;;;;;10.07;6.32;;;;;;;;;;5009681;28;20581;-66
2022/03/02 12:39:22;;;;;;;9.18;6.40;;;;;;;;;;5012242;28;20101;-68
2022/03/02 12:41:50;;;;;;;10.77;6.50;;;;;;;;;;4997299;28;20047;-67
2022/03/02 12:44:21;;;;;;;9.45;6.78;;;;;;;;;;4997027;28;20393;-65
2022/03/02 12:46:54;;;;;;;7.35;6.25;;;;;;;;;;4997484;28;20038;-67
2022/03/02 12:49:26;;;;;;;11.48;8.43;;;;;;;;;;5011689;28;20054;-67
2022/03/02 12:51:56;;;;;;;9.43;6.72;;;;;;;;;;4996678;28;20445;-66
2022/03/02 12:54:28;;;;;;;13.25;9.45;;;;;;;;;;5012033;28;20046;-67
2022/03/02 12:56:58;;;;;;;9.23;6.18;;;;;;;;;;4997522;28;20077;-67
2022/03/02 12:59:28;;;;;;;9.88;7.13;;;;;;;;;;4996229;28;20049;-66
2022/03/02 13:01:55;;;;;;;9.35;6.80;;;;;;;;;;5011993;28;20034;-66
2022/03/02 13:04:44;;;;;;;9.27;6.40;;;;;;;;;;4996427;28;20069;-67
2022/03/02 13:07:32;;;;;;;10.90;7.55;;;;;;;;;;5011566;28;20043;-66
2022/03/02 13:10:05;;;;;;;9.02;6.65;;;;;;;;;;4996567;28;20058;-66
2022/03/02 13:12:39;;;;;;;7.93;6.60;;;;;;;;;;5011973;28;20104;-66
2022/03/02 13:15:24;;;;;;;7.82;6.10;;;;;;;;;;5011529;28;20076;-66
2022/03/02 13:18:10;;;;;;;8.88;6.47;;;;;;;;;;4994934;28;20046;-66
2022/03/02 13:20:41;;;;;;;10.10;6.90;;;;;;;;;;5011128;28;20051;-67
2022/03/02 13:23:21;;;;;;;9.10;6.43;;;;;;;;;;4994954;28;20046;-68
2022/03/02 13:25:58;;;;;;;8.25;6.40;;;;;;;;;;5011227;28;20042;-67
2022/03/02 13:28:30;;;;;;;10.30;5.72;;;;;;;;;;4996233;28;20566;-67
2022/03/02 13:31:06;;;;;;;10.25;6.68;;;;;;;;;;5011052;28;20512;-67
2022/03/02 13:33:55;;;;;;;8.85;6.20;;;;;;;;;;4996077;28;20046;-67
2022/03/02 13:36:36;;;;;;;9.23;6.03;;;;;;;;;;5011042;28;20043;-67
2022/03/02 13:39:27;;;;;;;8.90;6.07;;;;;;;;;;4995959;28;20145;-67
2022/03/02 13:42:03;;;;;;;9.43;6.28;;;;;;;;;;4995909;28;20370;-67
2022/03/02 13:44:35;;;;;;;8.00;5.65;;;;;;;;;;4995855;28;20058;-67
2022/03/02 13:47:13;;;;;;;7.80;5.93;;;;;;;;;;4995912;28;20042;-66
2022/03/02 13:49:53;;;;;;;9.55;6.20;;;;;;;;;;5010782;28;20085;-67
2022/03/02 13:52:46;;;;;;;8.07;5.85;;;;;;;;;;4995929;28;20108;-68
2022/03/02 13:55:14;;;;;;;8.00;6.00;;;;;;;;;;5010967;28;20047;-68
2022/03/02 13:58:18;;;;;;;9.13;6.85;;;;;;;;;;4995532;28;20054;-67
2022/03/02 14:00:48;;;;;;;9.73;6.93;;;;;;;;;;4994212;28;20043;-67
2022/03/02 14:03:26;;;;;;;8.60;6.57;;;;;;;;;;5010778;28;20144;-67
2022/03/02 14:05:55;;;;;;;7.25;6.35;;;;;;;;;;4995388;28;20061;-66
2022/03/02 14:08:25;;;;;;;10.40;7.45;;;;;;;;;;5010154;28;20043;-66
2022/03/02 14:10:59;;;;;;;9.50;7.60;;;;;;;;;;5010396;28;20085;-67
2022/03/02 14:13:34;;;;;;;13.50;8.07;;;;;;;;;;5010408;28;20137;-67
2022/03/02 14:16:06;;;;;;;8.85;7.43;;;;;;;;;;4994974;28;20060;-67
2022/03/02 14:18:34;;;;;;;10.20;7.30;;;;;;;;;;4995203;28;20130;-67
2022/03/02 14:21:27;;;;;;;11.63;7.57;;;;;;;;;;4993628;28;20047;-67
2022/03/02 14:24:20;;;;;;;14.82;9.85;;;;;;;;;;4994980;28;20049;-66
2022/03/02 14:27:14;;;;;;;10.40;7.80;;;;;;;;;;4995143;28;20039;-67
2022/03/02 14:30:07;;;;;;;10.20;7.90;;;;;;;;;;4995276;28;20050;-67
2022/03/02 14:32:41;;;;;;;9.52;8.05;;;;;;;;;;5010023;28;20043;-66
2022/03/02 14:35:14;;;;;;;14.68;9.63;;;;;;;;;;5010037;28;20046;-66
2022/03/02 14:37:43;;;;;;;12.52;9.02;;;;;;;;;;4998280;28;20084;-66
2022/03/02 14:40:17;;;;;;;10.05;7.38;;;;;;;;;;5014225;28;20570;-67
2022/03/02 14:43:05;;;;;;;8.95;7.07;;;;;;;;;;5010585;28;20052;-67
2022/03/02 14:45:39;;;;;;;8.18;6.65;;;;;;;;;;5012905;28;20133;-67
2022/03/02 14:48:07;;;;;;;10.18;7.82;;;;;;;;;;5012304;28;20094;-64
2022/03/02 14:50:37;;;;;;;8.02;6.55;;;;;;;;;;5011900;28;20053;-67
2022/03/02 14:53:15;;;;;;;20.83;14.77;;;;;;;;;;5009806;28;20092;-67
2022/03/02 14:55:55;;;;;;;11.32;7.72;;;;;;;;;;5009791;28;20045;-67
2022/03/02 14:58:49;;;;;;;13.98;10.45;;;;;;;;;;4994164;28;20117;-69
2022/03/02 15:01:42;;;;;;;13.65;10.25;;;;;;;;;;5008986;28;20042;-67